Terminal Aerodrome Forecast
Issued by NWS Houston/Galveston, TX

Home | Current Version | Previous Version | Text Only | Print | Product List | Glossary On
Versions: 1 2 3 4 5 6 7 8 9 10 11 12 13 14 15
000
FTUS44 KHGX 060903 AAA
TAFCLL
TAF AMD
KCLL 060903Z 0609/0706 VRB04KT P6SM SCT250
      TEMPO 0611/0613 5SM BR
     FM061400 09004KT P6SM SCT250
     FM061700 14005KT P6SM SCT250
     FM062100 11005KT P6SM SCT250
     FM070300 15004KT P6SM SCT250=

USA.gov is the U.S. government's official web portal to all federal, state and local government web resources and services.